Allen Jay, North Carolina
Current Conditions -  °F | °C
As of 2:54 AM on Friday 19 Dec 2014 (Local Time) from KGSO Reporting Station
Overcast Overcast  
Wind Chill: 42°   Ceiling: 6000
Heat Index: 42°   Visibility: 10mi
Dew Point: 25°   Wind: 0mph
Humidity: 51%   Direction: NA
Pressure: 30.09"   Gusts: NA
Location:  35.9136°N, 79.9465°W
Report Text: KGSO 190754Z 00000KT 10SM OVC060 06/M04 A3009 RMK AO2 SLP192 T00561039
Loading
Personal Weather Stations






























Interactive Weather Map New forecast layout! Learn more

10-Day Weather Forecast

Advertisements
Track Severe Weather on mobile